Time;durP1;ratioP1;P1;durP2;ratioP2;P2;SDS_P1;SDS_P2;PMS_P1;PMS_P2;Temp;Humidity;BMP_temperature;BMP_pressure;BME280_temperature;BME280_humidity;BME280_pressure;Samples;Min_cycle;Max_cycle;Signal;HPM_P1;HPM_P2
2022/01/01 00:02:20;;;;;;;40.20;18.42;;;11.10;99.90;;;;;;5101820;28;20047;-71
2022/01/01 00:04:47;;;;;;;43.63;19.55;;;11.40;99.90;;;;;;5106964;28;20043;-71
2022/01/01 00:07:14;;;;;;;48.35;21.83;;;11.40;99.90;;;;;;5086858;28;20121;-70
2022/01/01 00:09:41;;;;;;;40.92;19.33;;;11.10;99.90;;;;;;5087303;28;20148;-70
2022/01/01 00:12:07;;;;;;;43.38;19.50;;;11.40;99.90;;;;;;5084909;28;20047;-70
2022/01/01 00:14:34;;;;;;;47.70;21.75;;;11.10;99.90;;;;;;5106627;28;20352;-70
2022/01/01 00:17:00;;;;;;;43.08;19.00;;;11.10;99.90;;;;;;5088142;28;20058;-70
2022/01/01 00:19:26;;;;;;;43.83;20.88;;;11.40;99.90;;;;;;5080452;28;20040;-71
2022/01/01 00:21:51;;;;;;;45.55;18.42;;;11.10;99.90;;;;;;5069021;28;20043;-71
2022/01/01 00:24:17;;;;;;;47.15;20.70;;;11.40;99.90;;;;;;5088528;28;20051;-71
2022/01/01 00:26:43;;;;;;;45.22;20.70;;;11.10;99.90;;;;;;5082918;28;20044;-71
2022/01/01 00:29:09;;;;;;;56.70;34.33;;;11.10;99.90;;;;;;5104003;28;20612;-74
2022/01/01 00:31:34;;;;;;;60.72;25.33;;;11.30;99.90;;;;;;5078407;28;20066;-71
2022/01/01 00:34:00;;;;;;;58.92;27.80;;;11.20;99.90;;;;;;5091152;28;20035;-72
2022/01/01 00:36:27;;;;;;;51.30;24.42;;;11.00;99.90;;;;;;5088433;28;20056;-72
2022/01/01 00:38:53;;;;;;;56.53;26.05;;;11.00;99.90;;;;;;5081131;28;20032;-71
2022/01/01 00:41:19;;;;;;;60.90;28.10;;;11.10;99.90;;;;;;5101438;28;20031;-71
2022/01/01 00:43:44;;;;;;;55.30;24.95;;;11.40;99.90;;;;;;5080831;28;20040;-71
2022/01/01 00:46:11;;;;;;;66.75;24.42;;;11.30;99.90;;;;;;5081160;28;20050;-71
2022/01/01 00:48:36;;;;;;;54.13;26.13;;;11.00;99.90;;;;;;5102350;28;20036;-71
2022/01/01 00:51:03;;;;;;;70.30;33.13;;;10.90;99.90;;;;;;5098829;28;20369;-71
2022/01/01 00:53:29;;;;;;;308.05;206.82;;;10.90;99.90;;;;;;5080319;28;20036;-71
2022/01/01 00:55:54;;;;;;;105.63;58.88;;;10.90;99.90;;;;;;5103082;28;20032;-71
2022/01/01 00:58:20;;;;;;;71.32;35.78;;;10.90;99.90;;;;;;5089055;28;20381;-71
2022/01/01 01:00:46;;;;;;;113.32;68.40;;;10.90;99.90;;;;;;5094210;28;20043;-71
2022/01/01 01:03:14;;;;;;;67.90;31.83;;;10.90;99.90;;;;;;5099571;28;20063;-71
2022/01/01 01:05:41;;;;;;;74.65;39.92;;;10.80;99.90;;;;;;5104657;28;20035;-71
2022/01/01 01:08:08;;;;;;;67.85;34.28;;;10.80;99.90;;;;;;5105884;28;20044;-71
2022/01/01 01:10:34;;;;;;;61.80;29.38;;;10.80;99.90;;;;;;5102739;28;20146;-71
2022/01/01 01:13:00;;;;;;;79.60;43.17;;;10.80;99.90;;;;;;5107769;28;20483;-71
2022/01/01 01:15:26;;;;;;;77.80;41.90;;;10.80;99.90;;;;;;5109982;28;20032;-71
2022/01/01 01:17:53;;;;;;;87.97;43.70;;;10.70;99.90;;;;;;5093636;28;20043;-70
2022/01/01 01:20:20;;;;;;;71.68;33.90;;;10.70;99.90;;;;;;5096774;28;20040;-71
2022/01/01 01:22:46;;;;;;;67.82;34.40;;;10.70;99.90;;;;;;5090429;28;20041;-71
2022/01/01 01:25:13;;;;;;;76.28;36.15;;;10.70;99.90;;;;;;5082766;28;20140;-70
2022/01/01 01:27:39;;;;;;;71.60;33.85;;;10.50;99.90;;;;;;5089704;28;20067;-71
2022/01/01 01:30:09;;;;;;;68.57;32.85;;;10.70;99.90;;;;;;5091667;28;20051;-71
2022/01/01 01:32:36;;;;;;;64.47;30.52;;;10.70;99.90;;;;;;5112421;28;20131;-70
2022/01/01 01:35:02;;;;;;;69.35;31.30;;;10.70;99.90;;;;;;5084822;28;20048;-70
2022/01/01 01:37:28;;;;;;;68.95;27.13;;;10.70;99.90;;;;;;5082998;28;20074;-71
2022/01/01 01:39:58;;;;;;;65.55;28.27;;;10.80;99.90;;;;;;5101815;28;20028;-70
2022/01/01 01:42:26;;;;;;;64.13;27.35;;;10.70;99.90;;;;;;5106687;28;20044;-70
2022/01/01 01:44:53;;;;;;;51.83;23.20;;;10.70;99.90;;;;;;5085148;28;20047;-71
2022/01/01 01:47:29;;;;;;;62.70;25.67;;;11.00;99.90;;;;;;5067691;28;20039;-71
2022/01/01 01:49:55;;;;;;;59.53;25.73;;;10.80;99.90;;;;;;5104230;28;20111;-71
2022/01/01 01:52:22;;;;;;;54.67;23.50;;;10.80;99.90;;;;;;5073664;28;20122;-70
2022/01/01 01:54:48;;;;;;;68.25;26.17;;;10.80;99.90;;;;;;5082193;28;20360;-71
2022/01/01 01:57:15;;;;;;;64.85;27.33;;;10.80;99.90;;;;;;5086850;28;20141;-71
2022/01/01 01:59:41;;;;;;;61.22;26.50;;;10.80;99.90;;;;;;5081886;28;20048;-71
2022/01/01 02:02:08;;;;;;;56.80;25.48;;;10.80;99.90;;;;;;5087700;28;20096;-71
2022/01/01 02:04:34;;;;;;;65.53;29.63;;;10.80;99.90;;;;;;5111447;28;20062;-71
2022/01/01 02:07:00;;;;;;;61.95;28.30;;;10.90;99.90;;;;;;5075071;28;20071;-70
2022/01/01 02:09:26;;;;;;;67.05;28.33;;;10.80;99.90;;;;;;5087575;28;20125;-71
2022/01/01 02:11:53;;;;;;;68.03;28.13;;;11.20;99.90;;;;;;5074534;28;20173;-71
2022/01/01 02:14:34;;;;;;;72.93;29.73;;;10.90;99.90;;;;;;5105599;28;20036;-71
2022/01/01 02:19:27;;;;;;;75.35;36.10;;;10.90;99.90;;;;;;5082445;28;20071;-70
2022/01/01 02:21:56;;;;;;;72.68;35.40;;;10.90;99.90;;;;;;5109034;28;20054;-71
2022/01/01 02:24:22;;;;;;;67.38;32.42;;;10.90;99.90;;;;;;5110108;28;20035;-70
2022/01/01 02:26:47;;;;;;;74.53;35.25;;;11.00;99.90;;;;;;5091775;28;20400;-72
2022/01/01 02:29:14;;;;;;;77.53;40.03;;;10.90;99.90;;;;;;5073064;28;20395;-70
2022/01/01 02:31:39;;;;;;;95.47;51.83;;;10.90;99.90;;;;;;5105076;28;20086;-71
2022/01/01 02:34:07;;;;;;;78.60;40.17;;;10.90;99.90;;;;;;5071146;28;20056;-71
2022/01/01 02:36:42;;;;;;;79.78;40.90;;;11.20;99.90;;;;;;5069530;28;20059;-71
2022/01/01 02:39:20;;;;;;;81.10;42.35;;;10.90;99.90;;;;;;5054953;28;20084;-71
2022/01/01 02:41:48;;;;;;;82.32;41.00;;;10.90;99.90;;;;;;5067989;28;20051;-71
2022/01/01 02:44:14;;;;;;;78.88;40.70;;;10.90;99.90;;;;;;5069122;28;20097;-71
2022/01/01 02:46:40;;;;;;;71.63;42.50;;;10.80;99.90;;;;;;5059358;28;20051;-71
2022/01/01 02:49:06;;;;;;;85.72;43.58;;;10.80;99.90;;;;;;5058853;28;20136;-71
2022/01/01 02:51:32;;;;;;;87.93;45.50;;;11.10;99.90;;;;;;5064941;28;20400;-70
2022/01/01 02:53:58;;;;;;;77.32;41.85;;;10.80;99.90;;;;;;5057518;28;20056;-71
2022/01/01 02:56:24;;;;;;;86.00;45.53;;;10.80;99.90;;;;;;5064287;28;20491;-72
2022/01/01 02:58:51;;;;;;;81.35;45.33;;;10.90;99.90;;;;;;5063293;28;20066;-70
2022/01/01 03:01:17;;;;;;;91.18;45.63;;;10.70;99.90;;;;;;5060821;28;20109;-71
2022/01/01 03:03:43;;;;;;;82.18;48.38;;;10.80;99.90;;;;;;5065167;28;20036;-71
2022/01/01 03:06:09;;;;;;;90.55;44.67;;;10.80;99.90;;;;;;5058163;28;20090;-70
2022/01/01 03:08:34;;;;;;;91.35;47.97;;;11.00;99.90;;;;;;5064596;28;20067;-71
2022/01/01 03:11:03;;;;;;;89.47;47.03;;;10.80;99.90;;;;;;5065103;28;20075;-71
2022/01/01 03:13:32;;;;;;;93.03;46.13;;;10.70;99.90;;;;;;5067900;28;20127;-70
2022/01/01 03:15:58;;;;;;;85.20;46.35;;;10.70;99.90;;;;;;5060341;28;20032;-71
2022/01/01 03:18:23;;;;;;;97.38;49.10;;;10.80;99.90;;;;;;5059181;28;20087;-70
2022/01/01 03:20:49;;;;;;;83.50;44.20;;;10.70;99.90;;;;;;5064386;28;20044;-71
2022/01/01 03:23:15;;;;;;;84.40;44.47;;;10.80;99.90;;;;;;5062600;28;20477;-71
2022/01/01 03:25:41;;;;;;;81.90;42.50;;;10.80;99.90;;;;;;5067065;28;20048;-70
2022/01/01 03:28:06;;;;;;;84.50;43.13;;;10.70;99.90;;;;;;5055950;28;20059;-71
2022/01/01 03:30:33;;;;;;;76.25;40.35;;;10.80;99.90;;;;;;5066706;28;20422;-71
2022/01/01 03:32:58;;;;;;;94.00;41.78;;;11.30;99.90;;;;;;5060013;28;20047;-71
2022/01/01 03:35:24;;;;;;;81.28;43.05;;;11.30;99.90;;;;;;5075847;28;20383;-71
2022/01/01 03:37:50;;;;;;;83.05;40.85;;;10.80;99.90;;;;;;5080068;28;20043;-71
2022/01/01 03:40:16;;;;;;;87.32;43.17;;;10.70;99.90;;;;;;5091483;28;20035;-71
2022/01/01 03:42:41;;;;;;;91.63;46.72;;;10.80;99.90;;;;;;5084245;28;20119;-71
2022/01/01 03:45:08;;;;;;;85.60;45.15;;;10.90;99.90;;;;;;5085979;28;20047;-71
2022/01/01 03:47:34;;;;;;;88.88;42.33;;;10.80;99.90;;;;;;5083194;28;20032;-70
2022/01/01 03:50:00;;;;;;;94.35;46.97;;;10.80;99.90;;;;;;5077132;28;20126;-70
2022/01/01 03:52:26;;;;;;;88.30;46.15;;;10.80;99.90;;;;;;5104711;28;20123;-71
2022/01/01 03:54:52;;;;;;;84.70;42.60;;;10.80;99.90;;;;;;5077672;28;20036;-70
2022/01/01 03:57:20;;;;;;;93.85;48.88;;;10.90;99.90;;;;;;5079049;28;20090;-70
2022/01/01 03:59:47;;;;;;;90.30;49.75;;;10.80;99.90;;;;;;5086009;28;20043;-71
2022/01/01 04:02:14;;;;;;;98.22;55.75;;;10.70;99.90;;;;;;5080308;28;20079;-71
2022/01/01 04:04:40;;;;;;;96.90;48.22;;;10.90;99.90;;;;;;5079710;28;20072;-71
2022/01/01 04:07:06;;;;;;;89.22;49.55;;;10.80;99.90;;;;;;5086992;28;20431;-71
2022/01/01 04:09:32;;;;;;;83.82;45.92;;;10.80;99.90;;;;;;5084735;28;20089;-70
2022/01/01 04:11:57;;;;;;;91.80;46.80;;;10.80;99.90;;;;;;5088875;28;20043;-71
2022/01/01 04:14:23;;;;;;;96.50;51.58;;;10.80;99.90;;;;;;5081269;28;20043;-71
2022/01/01 04:16:51;;;;;;;96.78;54.10;;;10.80;99.90;;;;;;5080256;28;20100;-71
2022/01/01 04:19:17;;;;;;;95.30;51.78;;;10.80;99.90;;;;;;5090253;28;20058;-70
2022/01/01 04:21:43;;;;;;;94.95;52.70;;;10.80;99.90;;;;;;5080769;28;20487;-71
2022/01/01 04:24:08;;;;;;;91.55;49.60;;;10.80;99.90;;;;;;5082235;28;20059;-70
2022/01/01 04:26:34;;;;;;;96.05;51.55;;;10.80;99.90;;;;;;5082950;28;20040;-71
2022/01/01 04:29:00;;;;;;;100.90;52.70;;;10.80;99.90;;;;;;5104489;28;20036;-70
2022/01/01 04:31:25;;;;;;;100.53;52.53;;;10.80;99.90;;;;;;5068941;28;20044;-71
2022/01/01 04:33:51;;;;;;;95.72;53.38;;;11.00;99.90;;;;;;5104704;28;20113;-70
2022/01/01 04:36:17;;;;;;;107.07;55.88;;;11.00;99.90;;;;;;5101693;28;20454;-70
2022/01/01 04:38:44;;;;;;;106.03;56.63;;;10.80;99.90;;;;;;5102904;28;20067;-70
2022/01/01 04:41:15;;;;;;;106.70;60.22;;;10.80;99.90;;;;;;5086919;28;20840;-70
2022/01/01 04:43:43;;;;;;;108.03;57.55;;;10.70;99.90;;;;;;5084382;28;20043;-70
2022/01/01 04:46:10;;;;;;;107.70;57.63;;;10.70;99.90;;;;;;5088351;28;20050;-71
2022/01/01 04:48:37;;;;;;;110.50;59.78;;;10.70;99.90;;;;;;5102193;28;20036;-71
2022/01/01 04:51:07;;;;;;;110.97;60.50;;;11.00;99.90;;;;;;5089405;28;20122;-70
2022/01/01 04:53:43;;;;;;;120.45;60.47;;;10.80;99.90;;;;;;5088056;28;20384;-71
2022/01/01 04:56:08;;;;;;;112.38;61.70;;;10.70;99.90;;;;;;5092296;28;20039;-71
2022/01/01 04:58:35;;;;;;;109.47;60.42;;;10.70;99.90;;;;;;5090434;28;20042;-71
2022/01/01 05:01:01;;;;;;;115.85;57.97;;;10.90;99.90;;;;;;5103632;28;20031;-70
2022/01/01 05:03:27;;;;;;;110.28;58.03;;;10.70;99.90;;;;;;5089738;28;20054;-71
2022/01/01 05:05:52;;;;;;;108.05;59.58;;;10.60;99.90;;;;;;5085384;28;20040;-70
2022/01/01 05:08:18;;;;;;;104.90;59.25;;;10.60;99.90;;;;;;5098194;28;20036;-70
2022/01/01 05:10:44;;;;;;;106.53;57.17;;;10.70;99.90;;;;;;5106146;28;20509;-70
2022/01/01 05:13:10;;;;;;;110.53;57.50;;;10.70;99.90;;;;;;5087773;28;20077;-70
2022/01/01 05:15:36;;;;;;;108.25;58.80;;;10.70;99.90;;;;;;5085477;28;20398;-70
2022/01/01 05:18:02;;;;;;;113.75;59.92;;;10.70;99.90;;;;;;5100877;28;20036;-70
2022/01/01 05:20:27;;;;;;;98.20;56.95;;;10.70;99.90;;;;;;5085288;28;20038;-71
2022/01/01 05:22:53;;;;;;;113.40;58.00;;;10.70;99.90;;;;;;5105789;28;20035;-70
2022/01/01 05:25:19;;;;;;;113.05;58.63;;;10.70;99.90;;;;;;5086380;28;20048;-70
2022/01/01 05:27:44;;;;;;;115.47;55.72;;;10.70;99.90;;;;;;5107550;28;20511;-70
2022/01/01 05:30:11;;;;;;;111.43;57.67;;;10.80;99.90;;;;;;5080746;28;20050;-71
2022/01/01 05:32:36;;;;;;;101.95;57.42;;;10.80;99.90;;;;;;5105409;28;20036;-70
2022/01/01 05:35:04;;;;;;;112.20;57.33;;;10.80;99.90;;;;;;5072972;28;20052;-71
2022/01/01 05:37:29;;;;;;;116.40;59.20;;;10.80;99.90;;;;;;5088985;28;20043;-71
2022/01/01 05:39:55;;;;;;;108.03;59.60;;;10.90;99.90;;;;;;5090535;28;20101;-70
2022/01/01 05:42:21;;;;;;;101.88;57.22;;;10.80;99.90;;;;;;5099778;28;20044;-71
2022/01/01 05:44:46;;;;;;;107.63;57.28;;;10.70;99.90;;;;;;5104764;28;20063;-70
2022/01/01 05:47:12;;;;;;;113.25;57.38;;;10.80;99.90;;;;;;5100921;28;20060;-70
2022/01/01 05:49:38;;;;;;;107.10;56.97;;;10.90;99.90;;;;;;5072572;28;20050;-70
2022/01/01 05:52:04;;;;;;;104.18;53.95;;;10.80;99.90;;;;;;5081521;28;20392;-70
2022/01/01 05:54:29;;;;;;;103.90;51.70;;;10.90;99.90;;;;;;5104303;28;20119;-71
2022/01/01 05:56:55;;;;;;;95.38;51.78;;;10.90;99.90;;;;;;5088093;28;20172;-71
2022/01/01 05:59:21;;;;;;;95.50;49.35;;;10.90;99.90;;;;;;5083397;28;20036;-71
2022/01/01 06:01:46;;;;;;;90.32;43.92;;;10.90;99.90;;;;;;5086787;28;20043;-70
2022/01/01 06:04:12;;;;;;;83.28;39.63;;;10.90;99.90;;;;;;5089343;28;20056;-70
2022/01/01 06:06:38;;;;;;;90.38;45.92;;;10.90;99.90;;;;;;5088083;28;20035;-70
2022/01/01 06:09:04;;;;;;;87.25;43.20;;;10.80;99.90;;;;;;5107307;28;20027;-70
2022/01/01 06:11:29;;;;;;;81.65;43.80;;;10.80;99.90;;;;;;5085104;28;20159;-70
2022/01/01 06:13:55;;;;;;;84.25;41.42;;;10.80;99.90;;;;;;5078299;28;20118;-70
2022/01/01 06:16:21;;;;;;;84.45;40.33;;;10.80;99.90;;;;;;5077612;28;20123;-70
2022/01/01 06:18:46;;;;;;;88.80;39.08;;;10.80;99.90;;;;;;5067613;28;20040;-70
2022/01/01 06:21:12;;;;;;;92.80;41.55;;;10.80;99.90;;;;;;5087156;28;20122;-71
2022/01/01 06:23:39;;;;;;;87.32;39.38;;;10.80;99.90;;;;;;5106493;28;20115;-71
2022/01/01 06:26:05;;;;;;;84.25;39.80;;;10.90;99.90;;;;;;5107204;28;20047;-70
2022/01/01 06:28:31;;;;;;;88.18;34.28;;;10.80;99.90;;;;;;5098880;28;20113;-71
2022/01/01 06:30:57;;;;;;;84.43;37.42;;;10.80;99.90;;;;;;5086880;28;20104;-70
2022/01/01 06:33:23;;;;;;;89.32;39.95;;;10.70;99.90;;;;;;5082800;28;20040;-70
2022/01/01 06:35:48;;;;;;;82.35;36.40;;;10.80;99.90;;;;;;5102523;28;20127;-70
2022/01/01 06:38:15;;;;;;;87.47;36.88;;;10.80;99.90;;;;;;5086681;28;20488;-70
2022/01/01 06:40:42;;;;;;;94.60;37.50;;;10.80;99.90;;;;;;5080083;28;20039;-71
2022/01/01 06:43:10;;;;;;;81.43;34.20;;;10.80;99.90;;;;;;5098478;28;20039;-70
2022/01/01 06:45:36;;;;;;;89.53;35.33;;;10.80;99.90;;;;;;5087508;28;20031;-70
2022/01/01 06:48:02;;;;;;;81.85;34.22;;;10.80;99.90;;;;;;5099131;28;20441;-70
2022/01/01 06:50:28;;;;;;;95.05;34.55;;;10.80;99.90;;;;;;5084847;28;20372;-70
2022/01/01 06:52:54;;;;;;;92.00;35.80;;;10.80;99.90;;;;;;5103894;28;20086;-70
2022/01/01 06:55:20;;;;;;;84.32;33.13;;;11.10;99.90;;;;;;5088406;28;20737;-70
2022/01/01 06:57:46;;;;;;;86.88;33.33;;;10.80;99.90;;;;;;5066600;28;20047;-70
2022/01/01 07:00:13;;;;;;;82.78;32.85;;;10.80;99.90;;;;;;5077821;28;20118;-70
2022/01/01 07:02:40;;;;;;;82.50;32.58;;;10.80;99.90;;;;;;5099082;28;20028;-70
2022/01/01 07:05:07;;;;;;;81.95;31.75;;;10.80;99.90;;;;;;5102943;28;20039;-71
2022/01/01 07:07:33;;;;;;;73.05;33.22;;;10.80;99.90;;;;;;5084047;28;20114;-71
2022/01/01 07:09:58;;;;;;;83.18;31.48;;;10.90;99.90;;;;;;5085048;28;20142;-70
2022/01/01 07:12:24;;;;;;;77.13;30.77;;;10.90;99.90;;;;;;5105704;28;20032;-70
2022/01/01 07:14:50;;;;;;;83.68;31.95;;;10.90;99.90;;;;;;5102096;28;20544;-70
2022/01/01 07:17:15;;;;;;;81.57;31.27;;;10.90;99.90;;;;;;5086266;28;20554;-70
2022/01/01 07:19:41;;;;;;;78.53;30.63;;;10.90;99.90;;;;;;5085228;28;20051;-71
2022/01/01 07:22:07;;;;;;;81.80;30.02;;;10.90;99.90;;;;;;5080201;28;20142;-70
2022/01/01 07:24:33;;;;;;;71.55;27.92;;;11.00;99.90;;;;;;5086883;28;20039;-70
2022/01/01 07:26:58;;;;;;;72.45;26.05;;;10.90;99.90;;;;;;5106082;28;20491;-70
2022/01/01 07:29:24;;;;;;;70.80;29.10;;;11.00;99.90;;;;;;5083477;28;20100;-70
2022/01/01 07:31:53;;;;;;;73.93;28.38;;;11.00;99.90;;;;;;5082462;28;20722;-70
2022/01/01 07:34:20;;;;;;;77.35;29.60;;;11.00;99.90;;;;;;5085905;28;20051;-70
2022/01/01 07:36:46;;;;;;;76.00;29.48;;;10.90;99.90;;;;;;5093586;28;20415;-70
2022/01/01 07:39:12;;;;;;;83.75;31.00;;;11.10;99.90;;;;;;5080796;28;20039;-69
2022/01/01 07:41:39;;;;;;;79.45;28.80;;;11.00;99.90;;;;;;5102162;28;20035;-70
2022/01/01 07:44:05;;;;;;;79.10;29.90;;;11.10;99.90;;;;;;5086717;28;20517;-71
2022/01/01 07:46:30;;;;;;;76.07;30.25;;;11.10;99.90;;;;;;5095456;28;20054;-71
2022/01/01 07:48:56;;;;;;;65.97;27.15;;;11.10;99.90;;;;;;5095646;28;20043;-71
2022/01/01 07:51:22;;;;;;;77.75;29.40;;;11.40;99.90;;;;;;5096171;28;20032;-71
2022/01/01 07:53:48;;;;;;;71.88;28.13;;;11.20;99.90;;;;;;5081198;28;20044;-71
2022/01/01 07:56:13;;;;;;;75.72;27.52;;;11.20;99.90;;;;;;5064642;28;20050;-70
2022/01/01 07:58:39;;;;;;;60.72;27.10;;;11.40;99.90;;;;;;5068485;28;20047;-70
2022/01/01 08:01:05;;;;;;;74.07;27.58;;;11.30;99.90;;;;;;5096954;28;20495;-70
2022/01/01 08:03:30;;;;;;;74.10;28.73;;;11.70;99.90;;;;;;5104277;28;20043;-70
2022/01/01 08:05:56;;;;;;;68.30;26.75;;;11.30;99.90;;;;;;5084149;28;20050;-70
2022/01/01 08:08:22;;;;;;;64.93;25.30;;;12.00;99.90;;;;;;5095121;28;20118;-70
2022/01/01 08:10:48;;;;;;;55.95;24.33;;;12.00;99.90;;;;;;5102954;28;20399;-70
2022/01/01 08:13:22;;;;;;;67.72;27.52;;;11.40;99.90;;;;;;5082813;28;20031;-70
2022/01/01 08:15:49;;;;;;;51.63;24.48;;;11.40;99.90;;;;;;5065340;28;20036;-70
2022/01/01 08:18:15;;;;;;;64.78;26.23;;;;;;;;;;5077965;28;20390;-70
2022/01/01 08:20:41;;;;;;;66.53;25.17;;;11.50;99.90;;;;;;5103319;28;20476;-72
2022/01/01 08:23:07;;;;;;;55.38;25.27;;;11.70;99.90;;;;;;5096099;28;20090;-70
2022/01/01 08:25:33;;;;;;;53.15;24.20;;;11.60;99.90;;;;;;5082319;28;20051;-70
2022/01/01 08:27:59;;;;;;;55.55;22.63;;;11.80;99.90;;;;;;5102014;28;20387;-70
2022/01/01 08:30:24;;;;;;;61.72;25.48;;;11.60;99.90;;;;;;5084444;28;20039;-69
2022/01/01 08:32:50;;;;;;;60.85;26.92;;;11.60;99.90;;;;;;5085348;28;20043;-69
2022/01/01 08:35:16;;;;;;;49.97;24.10;;;12.00;99.90;;;;;;5101123;28;20455;-70
2022/01/01 08:37:42;;;;;;;53.55;23.42;;;11.70;99.90;;;;;;5070575;28;20043;-69
2022/01/01 08:40:08;;;;;;;57.67;26.98;;;11.70;99.90;;;;;;5099186;28;20035;-70
2022/01/01 08:42:34;;;;;;;57.17;25.83;;;11.70;99.90;;;;;;5098511;28;20039;-70
2022/01/01 08:45:00;;;;;;;59.58;27.27;;;11.70;99.90;;;;;;5104537;28;20092;-70
2022/01/01 08:47:26;;;;;;;61.33;26.52;;;12.00;99.90;;;;;;5079577;28;20074;-70
2022/01/01 08:49:55;;;;;;;56.20;26.08;;;11.70;99.90;;;;;;5075834;28;20540;-70
2022/01/01 08:52:25;;;;;;;53.58;27.45;;;11.60;99.90;;;;;;5082678;28;20098;-70
2022/01/01 08:54:56;;;;;;;56.55;25.55;;;11.80;99.90;;;;;;5090857;28;20036;-70
2022/01/01 08:57:22;;;;;;;59.25;26.88;;;12.10;99.90;;;;;;5079031;28;20036;-70
2022/01/01 08:59:48;;;;;;;55.28;29.05;;;11.70;99.90;;;;;;5095021;28;20032;-70
2022/01/01 09:02:14;;;;;;;54.45;27.88;;;12.00;99.90;;;;;;5077205;28;20047;-71
2022/01/01 09:04:39;;;;;;;62.17;29.92;;;12.00;99.90;;;;;;5077752;28;20044;-71
2022/01/01 09:07:05;;;;;;;57.95;27.50;;;11.80;99.90;;;;;;5099611;28;20075;-71
2022/01/01 09:09:31;;;;;;;69.45;29.15;;;12.10;99.90;;;;;;5076749;28;20521;-71
2022/01/01 09:11:57;;;;;;;65.88;31.15;;;11.80;99.90;;;;;;5102264;28;20043;-71
2022/01/01 09:14:23;;;;;;;54.65;27.83;;;11.80;99.90;;;;;;5090871;28;20084;-71
2022/01/01 09:16:49;;;;;;;53.85;26.60;;;11.80;99.90;;;;;;5084324;28;20491;-71
2022/01/01 09:19:14;;;;;;;58.05;26.73;;;11.80;99.90;;;;;;5076969;28;20609;-71
2022/01/01 09:21:40;;;;;;;61.65;27.50;;;11.80;99.90;;;;;;5081235;28;20039;-75
2022/01/01 09:24:06;;;;;;;59.67;27.30;;;11.70;99.90;;;;;;5065667;28;20075;-70
2022/01/01 09:26:32;;;;;;;65.97;29.80;;;11.90;99.90;;;;;;5070154;28;20050;-70
2022/01/01 09:28:58;;;;;;;50.38;26.67;;;11.90;99.90;;;;;;5084890;28;20043;-71
2022/01/01 09:31:24;;;;;;;59.63;29.05;;;11.90;99.90;;;;;;5081869;28;20468;-70
2022/01/01 09:33:50;;;;;;;46.85;27.38;;;;;;;;;;5088056;28;20048;-71
2022/01/01 09:36:17;;;;;;;50.67;27.23;;;;;;;;;;5079454;28;20135;-70
2022/01/01 09:38:45;;;;;;;54.65;27.55;;;;;;;;;;5079817;28;20056;-70
2022/01/01 09:41:13;;;;;;;55.00;27.05;;;;;;;;;;5083036;28;20726;-70
2022/01/01 09:43:40;;;;;;;47.08;25.55;;;;;;;;;;5084694;28;20036;-70
2022/01/01 09:46:06;;;;;;;47.53;25.73;;;;;;;;;;5086182;28;20119;-70
2022/01/01 09:48:32;;;;;;;53.13;24.58;;;;;;;;;;5076579;28;20067;-70
2022/01/01 09:50:59;;;;;;;51.72;26.75;;;;;;;;;;5079504;28;20110;-71
2022/01/01 09:53:26;;;;;;;50.38;24.48;;;;;;;;;;5078153;28;20083;-70
2022/01/01 09:55:53;;;;;;;46.85;26.27;;;;;;;;;;5076730;28;20040;-71
2022/01/01 09:58:23;;;;;;;43.70;21.38;;;;;;;;;;5084438;28;20510;-71
2022/01/01 10:00:50;;;;;;;44.10;25.48;;;;;;;;;;5078216;28;20466;-70
2022/01/01 10:03:17;;;;;;;49.05;23.48;;;;;;;;;;5060694;28;20109;-70
2022/01/01 10:06:04;;;;;;;36.78;22.38;;;12.40;99.90;;;;;;5079510;28;20040;-70
2022/01/01 10:08:30;;;;;;;39.33;21.35;;;12.30;99.90;;;;;;5065609;28;20049;-70
2022/01/01 10:10:57;;;;;;;38.97;20.05;;;12.30;99.90;;;;;;5069133;28;20068;-70
2022/01/01 10:13:39;;;;;;;34.45;18.50;;;12.30;99.90;;;;;;5082223;28;20089;-70
2022/01/01 10:16:10;;;;;;;37.63;21.05;;;12.30;99.90;;;;;;5074473;28;20047;-70
2022/01/01 10:18:41;;;;;;;37.72;20.65;;;12.20;99.90;;;;;;5071134;28;20392;-70
2022/01/01 10:21:21;;;;;;;40.95;21.35;;;12.30;99.90;;;;;;5074364;28;20115;-70
2022/01/01 10:23:52;;;;;;;41.72;19.67;;;12.30;99.90;;;;;;5077545;28;20052;-70
2022/01/01 10:29:15;;;;;;;36.40;20.00;;;12.20;99.90;;;;;;5081920;28;20052;-70
2022/01/01 10:32:07;;;;;;;38.00;19.02;;;12.40;99.90;;;;;;5083520;28;20555;-70
2022/01/01 10:34:37;;;;;;;33.67;18.25;;;12.40;99.90;;;;;;5077079;28;20105;-70
2022/01/01 10:37:06;;;;;;;32.65;17.35;;;12.50;99.90;;;;;;5100420;28;20120;-70
2022/01/01 10:39:32;;;;;;;45.40;19.88;;;12.30;99.90;;;;;;5086421;28;20040;-70
2022/01/01 10:42:01;;;;;;;33.20;18.20;;;12.30;99.90;;;;;;5071346;28;20047;-70
2022/01/01 10:44:36;;;;;;;36.63;17.30;;;12.30;99.90;;;;;;5101969;28;20039;-70
2022/01/01 10:47:14;;;;;;;34.70;18.25;;;12.40;99.90;;;;;;5106357;28;20031;-70
2022/01/01 10:52:33;;;;;;;28.83;16.25;;;12.40;99.90;;;;;;5086629;28;20048;-70
2022/01/01 10:55:08;;;;;;;28.10;14.07;;;12.70;99.90;;;;;;5100107;28;20061;-69
2022/01/01 10:57:36;;;;;;;28.98;13.85;;;12.40;99.90;;;;;;5098581;28;20501;-70
2022/01/01 11:00:12;;;;;;;30.77;14.35;;;12.40;99.90;;;;;;5083293;28;20043;-70
2022/01/01 11:02:42;;;;;;;22.42;12.60;;;12.50;99.90;;;;;;5099627;28;20050;-70
2022/01/01 11:05:08;;;;;;;32.15;12.52;;;12.60;99.90;;;;;;5104049;28;20461;-69
2022/01/01 11:07:35;;;;;;;23.52;11.55;;;;;;;;;;5101332;28;20098;-70
2022/01/01 11:10:01;;;;;;;24.48;13.25;;;;;;;;;;5081464;28;20036;-69
2022/01/01 11:12:30;;;;;;;25.40;11.23;;;;;;;;;;5082296;28;20077;-70
2022/01/01 11:14:57;;;;;;;26.25;10.50;;;;;;;;;;5099002;28;20118;-70
2022/01/01 11:17:24;;;;;;;25.10;11.40;;;;;;;;;;5083143;28;20035;-70
2022/01/01 11:19:50;;;;;;;26.10;11.05;;;;;;;;;;5100422;28;20035;-70
2022/01/01 11:22:18;;;;;;;23.30;10.02;;;;;;;;;;5100596;28;20048;-70
2022/01/01 11:24:45;;;;;;;19.58;9.50;;;;;;;;;;5107531;28;20050;-70
2022/01/01 11:27:11;;;;;;;23.88;10.07;;;;;;;;;;5101000;28;20472;-70
2022/01/01 11:29:39;;;;;;;20.10;10.43;;;;;;;;;;5107026;28;20038;-70
2022/01/01 11:32:07;;;;;;;20.50;9.35;;;;;;;;;;5106860;28;20407;-71
2022/01/01 11:34:37;;;;;;;20.05;9.93;;;;;;;;;;5102741;28;20035;-70
2022/01/01 11:37:05;;;;;;;19.40;8.48;;;;;;;;;;5107508;28;20519;-70
2022/01/01 11:39:31;;;;;;;20.55;9.13;;;;;;;;;;5081637;28;20044;-70
2022/01/01 11:42:09;;;;;;;19.73;9.27;;;;;;;;;;5100803;28;20031;-70
2022/01/01 11:44:35;;;;;;;20.85;8.82;;;;;;;;;;5080648;28;20567;-70
2022/01/01 11:47:04;;;;;;;19.92;8.40;;;;;;;;;;5106007;28;20122;-70
2022/01/01 11:49:31;;;;;;;17.33;8.32;;;;;;;;;;5104466;28;20351;-71
2022/01/01 11:51:58;;;;;;;17.00;8.48;;;;;;;;;;5097251;28;20035;-70
2022/01/01 11:54:25;;;;;;;23.15;8.30;;;;;;;;;;5082667;28;20119;-70
2022/01/01 11:56:52;;;;;;;18.15;6.82;;;;;;;;;;5106448;28;20081;-70
2022/01/01 11:59:21;;;;;;;14.38;6.97;;;;;;;;;;5086733;28;20172;-71
2022/01/01 12:01:48;;;;;;;18.60;6.32;;;;;;;;;;5088940;28;20044;-70
2022/01/01 12:04:33;;;;;;;15.68;7.80;;;;;;;;;;5101301;28;20028;-71
2022/01/01 12:07:17;;;;;;;13.43;6.10;;;;;;;;;;5103121;28;20391;-70
2022/01/01 12:09:50;;;;;;;15.00;6.97;;;;;;;;;;5083302;28;20550;-71
2022/01/01 12:12:18;;;;;;;11.93;6.35;;;;;;;;;;5088577;28;20043;-71
2022/01/01 12:14:45;;;;;;;13.65;6.30;;;;;;;;;;5084436;28;20664;-71
2022/01/01 12:17:15;;;;;;;16.42;6.22;;;;;;;;;;5104573;28;20101;-71
2022/01/01 12:19:43;;;;;;;17.65;6.13;;;;;;;;;;5086341;28;20073;-70
2022/01/01 12:22:10;;;;;;;17.05;6.47;;;;;;;;;;5084748;28;20051;-70
2022/01/01 12:24:37;;;;;;;11.45;5.43;;;;;;;;;;5097480;28;20044;-70
2022/01/01 12:27:14;;;;;;;15.52;6.43;;;;;;;;;;5087450;28;20058;-70
2022/01/01 12:29:40;;;;;;;12.77;5.45;;;;;;;;;;5093666;28;20032;-70
2022/01/01 12:32:08;;;;;;;17.67;5.85;;;;;;;;;;5082511;28;20395;-70
2022/01/01 12:34:36;;;;;;;18.98;7.30;;;;;;;;;;5073824;28;20047;-70
2022/01/01 12:37:04;;;;;;;9.43;5.22;;;;;;;;;;5096032;28;20459;-70
2022/01/01 12:39:57;;;;;;;12.55;5.53;;;12.70;99.90;;;;;;5109058;28;20040;-70
2022/01/01 12:42:27;;;;;;;16.95;5.70;;;;;;;;;;5109651;28;20115;-70
2022/01/01 12:45:07;;;;;;;11.38;5.80;;;;;;;;;;5073857;28;20050;-70
2022/01/01 12:47:33;;;;;;;13.95;5.72;;;;;;;;;;5085490;28;20440;-70
2022/01/01 12:50:01;;;;;;;13.98;5.60;;;12.80;99.90;;;;;;5088150;28;20036;-70
2022/01/01 12:52:27;;;;;;;14.57;6.05;;;;;;;;;;5102322;28;20047;-70
2022/01/01 12:54:57;;;;;;;11.35;6.45;;;;;;;;;;5087205;28;20036;-71